sensor_id;sensor_type;location;lat;lon;timestamp;P1;durP1;ratioP1;P2;durP2;ratioP2
20725;SDS011;10524;48.132;8.518;2022-12-24T00:01:06;4.93;;;1.55;;
20725;SDS011;10524;48.132;8.518;2022-12-24T00:03:33;7.03;;;1.58;;
20725;SDS011;10524;48.132;8.518;2022-12-24T00:06:07;7.38;;;1.50;;
20725;SDS011;10524;48.132;8.518;2022-12-24T00:08:37;7.05;;;1.90;;
20725;SDS011;10524;48.132;8.518;2022-12-24T00:11:05;3.55;;;1.40;;
20725;SDS011;10524;48.132;8.518;2022-12-24T00:13:31;5.68;;;1.60;;
20725;SDS011;10524;48.132;8.518;2022-12-24T00:15:57;6.13;;;1.50;;
20725;SDS011;10524;48.132;8.518;2022-12-24T00:18:23;5.07;;;1.65;;
20725;SDS011;10524;48.132;8.518;2022-12-24T00:20:49;6.80;;;1.55;;
20725;SDS011;10524;48.132;8.518;2022-12-24T00:23:16;6.43;;;2.08;;
20725;SDS011;10524;48.132;8.518;2022-12-24T00:25:42;6.45;;;1.85;;
20725;SDS011;10524;48.132;8.518;2022-12-24T00:28:08;6.20;;;1.85;;
20725;SDS011;10524;48.132;8.518;2022-12-24T00:30:36;5.82;;;2.05;;
20725;SDS011;10524;48.132;8.518;2022-12-24T00:33:03;17.90;;;5.80;;
20725;SDS011;10524;48.132;8.518;2022-12-24T00:35:28;15.48;;;5.50;;
20725;SDS011;10524;48.132;8.518;2022-12-24T00:37:54;12.25;;;4.28;;
20725;SDS011;10524;48.132;8.518;2022-12-24T00:40:20;10.05;;;2.70;;
20725;SDS011;10524;48.132;8.518;2022-12-24T00:42:45;8.88;;;3.13;;
20725;SDS011;10524;48.132;8.518;2022-12-24T00:45:11;6.70;;;2.10;;
20725;SDS011;10524;48.132;8.518;2022-12-24T00:47:37;7.65;;;2.45;;
20725;SDS011;10524;48.132;8.518;2022-12-24T00:50:03;6.32;;;1.92;;
20725;SDS011;10524;48.132;8.518;2022-12-24T00:52:29;6.70;;;1.63;;
20725;SDS011;10524;48.132;8.518;2022-12-24T00:54:55;7.90;;;1.70;;
20725;SDS011;10524;48.132;8.518;2022-12-24T00:57:21;7.15;;;1.67;;
20725;SDS011;10524;48.132;8.518;2022-12-24T00:59:46;4.63;;;1.52;;
20725;SDS011;10524;48.132;8.518;2022-12-24T01:02:12;6.00;;;1.52;;
20725;SDS011;10524;48.132;8.518;2022-12-24T01:04:37;6.03;;;1.50;;
20725;SDS011;10524;48.132;8.518;2022-12-24T01:07:21;6.13;;;1.58;;
20725;SDS011;10524;48.132;8.518;2022-12-24T01:09:47;6.13;;;1.58;;
20725;SDS011;10524;48.132;8.518;2022-12-24T01:12:13;6.07;;;1.90;;
20725;SDS011;10524;48.132;8.518;2022-12-24T01:14:38;5.68;;;1.58;;
20725;SDS011;10524;48.132;8.518;2022-12-24T01:17:04;4.40;;;1.50;;
20725;SDS011;10524;48.132;8.518;2022-12-24T01:19:30;5.47;;;2.03;;
20725;SDS011;10524;48.132;8.518;2022-12-24T01:21:56;5.00;;;1.40;;
20725;SDS011;10524;48.132;8.518;2022-12-24T01:24:22;5.65;;;1.92;;
20725;SDS011;10524;48.132;8.518;2022-12-24T01:26:48;7.20;;;2.10;;
20725;SDS011;10524;48.132;8.518;2022-12-24T01:29:14;7.50;;;2.60;;
20725;SDS011;10524;48.132;8.518;2022-12-24T01:31:39;7.93;;;2.15;;
20725;SDS011;10524;48.132;8.518;2022-12-24T01:34:05;7.97;;;3.08;;
20725;SDS011;10524;48.132;8.518;2022-12-24T01:36:31;6.80;;;2.42;;
20725;SDS011;10524;48.132;8.518;2022-12-24T01:38:57;7.00;;;2.75;;
20725;SDS011;10524;48.132;8.518;2022-12-24T01:41:22;10.00;;;4.40;;
20725;SDS011;10524;48.132;8.518;2022-12-24T01:44:24;13.85;;;4.88;;
20725;SDS011;10524;48.132;8.518;2022-12-24T01:46:53;11.52;;;4.28;;
20725;SDS011;10524;48.132;8.518;2022-12-24T01:49:33;6.82;;;2.08;;
20725;SDS011;10524;48.132;8.518;2022-12-24T01:52:12;4.15;;;1.92;;
20725;SDS011;10524;48.132;8.518;2022-12-24T01:57:42;6.85;;;1.80;;
20725;SDS011;10524;48.132;8.518;2022-12-24T02:00:13;4.38;;;1.63;;
20725;SDS011;10524;48.132;8.518;2022-12-24T02:02:40;10.20;;;2.50;;
20725;SDS011;10524;48.132;8.518;2022-12-24T02:07:41;6.80;;;2.10;;
20725;SDS011;10524;48.132;8.518;2022-12-24T02:10:07;7.45;;;1.98;;
20725;SDS011;10524;48.132;8.518;2022-12-24T02:12:35;8.10;;;2.35;;
20725;SDS011;10524;48.132;8.518;2022-12-24T02:15:03;5.68;;;1.95;;
20725;SDS011;10524;48.132;8.518;2022-12-24T02:17:32;7.10;;;2.20;;
20725;SDS011;10524;48.132;8.518;2022-12-24T02:23:08;13.70;;;5.63;;
20725;SDS011;10524;48.132;8.518;2022-12-24T02:31:25;8.10;;;3.47;;
20725;SDS011;10524;48.132;8.518;2022-12-24T02:34:03;7.80;;;2.85;;
20725;SDS011;10524;48.132;8.518;2022-12-24T02:36:34;7.78;;;1.92;;
20725;SDS011;10524;48.132;8.518;2022-12-24T02:39:09;9.38;;;2.00;;
20725;SDS011;10524;48.132;8.518;2022-12-24T02:41:40;4.78;;;1.48;;
20725;SDS011;10524;48.132;8.518;2022-12-24T02:44:29;8.07;;;1.90;;
20725;SDS011;10524;48.132;8.518;2022-12-24T02:46:58;4.75;;;1.60;;
20725;SDS011;10524;48.132;8.518;2022-12-24T02:49:25;4.00;;;1.38;;
20725;SDS011;10524;48.132;8.518;2022-12-24T02:51:50;8.35;;;1.63;;
20725;SDS011;10524;48.132;8.518;2022-12-24T02:54:16;5.28;;;1.48;;
20725;SDS011;10524;48.132;8.518;2022-12-24T02:56:54;6.78;;;1.92;;
20725;SDS011;10524;48.132;8.518;2022-12-24T02:59:55;8.25;;;1.83;;
20725;SDS011;10524;48.132;8.518;2022-12-24T03:05:23;7.43;;;1.60;;
20725;SDS011;10524;48.132;8.518;2022-12-24T03:13:05;6.38;;;1.80;;
20725;SDS011;10524;48.132;8.518;2022-12-24T03:18:02;7.05;;;2.08;;
20725;SDS011;10524;48.132;8.518;2022-12-24T03:20:46;7.78;;;1.95;;
20725;SDS011;10524;48.132;8.518;2022-12-24T03:23:16;6.70;;;1.80;;
20725;SDS011;10524;48.132;8.518;2022-12-24T03:25:43;6.90;;;1.85;;
20725;SDS011;10524;48.132;8.518;2022-12-24T03:28:10;4.95;;;1.60;;
20725;SDS011;10524;48.132;8.518;2022-12-24T03:30:39;9.02;;;1.88;;
20725;SDS011;10524;48.132;8.518;2022-12-24T03:33:06;7.90;;;1.83;;
20725;SDS011;10524;48.132;8.518;2022-12-24T03:35:32;6.50;;;1.63;;
20725;SDS011;10524;48.132;8.518;2022-12-24T03:37:57;4.22;;;1.48;;
20725;SDS011;10524;48.132;8.518;2022-12-24T03:40:23;4.75;;;1.75;;
20725;SDS011;10524;48.132;8.518;2022-12-24T03:42:49;3.53;;;1.60;;
20725;SDS011;10524;48.132;8.518;2022-12-24T03:45:14;5.65;;;1.83;;
20725;SDS011;10524;48.132;8.518;2022-12-24T03:47:40;6.82;;;2.03;;
20725;SDS011;10524;48.132;8.518;2022-12-24T03:50:06;7.90;;;1.70;;
20725;SDS011;10524;48.132;8.518;2022-12-24T03:52:32;10.88;;;2.28;;
20725;SDS011;10524;48.132;8.518;2022-12-24T03:54:59;4.53;;;1.85;;
20725;SDS011;10524;48.132;8.518;2022-12-24T03:57:24;5.53;;;2.00;;
20725;SDS011;10524;48.132;8.518;2022-12-24T03:59:50;10.02;;;1.85;;
20725;SDS011;10524;48.132;8.518;2022-12-24T04:02:16;5.63;;;1.90;;
20725;SDS011;10524;48.132;8.518;2022-12-24T04:04:41;7.13;;;2.17;;
20725;SDS011;10524;48.132;8.518;2022-12-24T04:07:07;9.93;;;2.08;;
20725;SDS011;10524;48.132;8.518;2022-12-24T04:09:32;8.00;;;1.90;;
20725;SDS011;10524;48.132;8.518;2022-12-24T04:11:58;6.70;;;1.92;;
20725;SDS011;10524;48.132;8.518;2022-12-24T04:14:24;7.85;;;1.92;;
20725;SDS011;10524;48.132;8.518;2022-12-24T04:16:49;5.22;;;1.70;;
20725;SDS011;10524;48.132;8.518;2022-12-24T04:19:15;5.20;;;1.83;;
20725;SDS011;10524;48.132;8.518;2022-12-24T04:21:40;5.93;;;2.10;;
20725;SDS011;10524;48.132;8.518;2022-12-24T04:24:06;10.15;;;2.25;;
20725;SDS011;10524;48.132;8.518;2022-12-24T04:26:32;9.13;;;2.10;;
20725;SDS011;10524;48.132;8.518;2022-12-24T04:28:57;7.50;;;1.98;;
20725;SDS011;10524;48.132;8.518;2022-12-24T04:31:23;10.02;;;2.35;;
20725;SDS011;10524;48.132;8.518;2022-12-24T04:33:49;8.40;;;1.80;;
20725;SDS011;10524;48.132;8.518;2022-12-24T04:36:16;7.78;;;2.28;;
20725;SDS011;10524;48.132;8.518;2022-12-24T04:38:43;10.10;;;1.80;;
20725;SDS011;10524;48.132;8.518;2022-12-24T04:41:14;5.38;;;1.92;;
20725;SDS011;10524;48.132;8.518;2022-12-24T04:43:41;9.80;;;1.90;;
20725;SDS011;10524;48.132;8.518;2022-12-24T04:46:08;8.40;;;2.05;;
20725;SDS011;10524;48.132;8.518;2022-12-24T04:48:38;8.63;;;1.98;;
20725;SDS011;10524;48.132;8.518;2022-12-24T04:51:05;5.93;;;1.80;;
20725;SDS011;10524;48.132;8.518;2022-12-24T04:53:32;10.90;;;2.00;;
20725;SDS011;10524;48.132;8.518;2022-12-24T04:55:59;9.18;;;2.33;;
20725;SDS011;10524;48.132;8.518;2022-12-24T04:58:25;8.30;;;1.85;;
20725;SDS011;10524;48.132;8.518;2022-12-24T05:00:51;5.82;;;1.83;;
20725;SDS011;10524;48.132;8.518;2022-12-24T05:03:17;15.02;;;2.53;;
20725;SDS011;10524;48.132;8.518;2022-12-24T05:05:43;5.88;;;1.98;;
20725;SDS011;10524;48.132;8.518;2022-12-24T05:08:08;14.15;;;2.47;;
20725;SDS011;10524;48.132;8.518;2022-12-24T05:10:34;6.32;;;1.95;;
20725;SDS011;10524;48.132;8.518;2022-12-24T05:13:00;7.57;;;2.00;;
20725;SDS011;10524;48.132;8.518;2022-12-24T05:15:25;9.98;;;2.40;;
20725;SDS011;10524;48.132;8.518;2022-12-24T05:17:51;9.27;;;1.70;;
20725;SDS011;10524;48.132;8.518;2022-12-24T05:20:17;7.85;;;1.92;;
20725;SDS011;10524;48.132;8.518;2022-12-24T05:22:42;7.00;;;1.65;;
20725;SDS011;10524;48.132;8.518;2022-12-24T05:25:27;9.25;;;2.42;;
20725;SDS011;10524;48.132;8.518;2022-12-24T05:28:16;10.10;;;2.03;;
20725;SDS011;10524;48.132;8.518;2022-12-24T05:30:42;9.60;;;2.20;;
20725;SDS011;10524;48.132;8.518;2022-12-24T05:33:08;10.30;;;2.38;;
20725;SDS011;10524;48.132;8.518;2022-12-24T05:35:33;11.75;;;2.08;;
20725;SDS011;10524;48.132;8.518;2022-12-24T05:37:59;8.35;;;1.77;;
20725;SDS011;10524;48.132;8.518;2022-12-24T05:40:24;7.15;;;1.95;;
20725;SDS011;10524;48.132;8.518;2022-12-24T05:42:50;10.75;;;2.10;;
20725;SDS011;10524;48.132;8.518;2022-12-24T05:45:15;9.57;;;2.13;;
20725;SDS011;10524;48.132;8.518;2022-12-24T05:47:41;7.68;;;1.85;;
20725;SDS011;10524;48.132;8.518;2022-12-24T05:50:07;5.57;;;1.85;;
20725;SDS011;10524;48.132;8.518;2022-12-24T05:52:33;6.93;;;1.80;;
20725;SDS011;10524;48.132;8.518;2022-12-24T05:54:59;7.60;;;2.10;;
20725;SDS011;10524;48.132;8.518;2022-12-24T05:57:24;7.95;;;2.38;;
20725;SDS011;10524;48.132;8.518;2022-12-24T05:59:50;8.30;;;2.00;;
20725;SDS011;10524;48.132;8.518;2022-12-24T06:02:15;9.02;;;2.10;;
20725;SDS011;10524;48.132;8.518;2022-12-24T06:04:41;5.80;;;1.70;;
20725;SDS011;10524;48.132;8.518;2022-12-24T06:07:07;8.30;;;2.10;;
20725;SDS011;10524;48.132;8.518;2022-12-24T06:09:32;6.28;;;1.75;;
20725;SDS011;10524;48.132;8.518;2022-12-24T06:11:58;9.40;;;2.17;;
20725;SDS011;10524;48.132;8.518;2022-12-24T06:14:24;7.68;;;1.80;;
20725;SDS011;10524;48.132;8.518;2022-12-24T06:16:50;7.10;;;1.80;;
20725;SDS011;10524;48.132;8.518;2022-12-24T06:19:15;8.88;;;2.22;;
20725;SDS011;10524;48.132;8.518;2022-12-24T06:21:41;10.70;;;2.55;;
20725;SDS011;10524;48.132;8.518;2022-12-24T06:24:07;10.93;;;2.60;;
20725;SDS011;10524;48.132;8.518;2022-12-24T06:26:33;5.18;;;2.10;;
20725;SDS011;10524;48.132;8.518;2022-12-24T06:28:58;8.57;;;2.00;;
20725;SDS011;10524;48.132;8.518;2022-12-24T06:31:24;8.38;;;2.30;;
20725;SDS011;10524;48.132;8.518;2022-12-24T06:33:50;7.45;;;2.22;;
20725;SDS011;10524;48.132;8.518;2022-12-24T06:36:21;7.97;;;1.90;;
20725;SDS011;10524;48.132;8.518;2022-12-24T06:38:48;12.23;;;2.42;;
20725;SDS011;10524;48.132;8.518;2022-12-24T06:41:14;8.18;;;2.00;;
20725;SDS011;10524;48.132;8.518;2022-12-24T06:43:44;8.30;;;2.13;;
20725;SDS011;10524;48.132;8.518;2022-12-24T06:46:11;9.40;;;1.88;;
20725;SDS011;10524;48.132;8.518;2022-12-24T06:48:37;13.20;;;2.38;;
20725;SDS011;10524;48.132;8.518;2022-12-24T06:51:03;8.32;;;2.35;;
20725;SDS011;10524;48.132;8.518;2022-12-24T06:53:29;7.03;;;1.80;;
20725;SDS011;10524;48.132;8.518;2022-12-24T06:56:05;8.57;;;2.20;;
20725;SDS011;10524;48.132;8.518;2022-12-24T06:58:35;11.23;;;2.85;;
20725;SDS011;10524;48.132;8.518;2022-12-24T07:01:02;9.68;;;2.13;;
20725;SDS011;10524;48.132;8.518;2022-12-24T07:03:29;12.13;;;2.17;;
20725;SDS011;10524;48.132;8.518;2022-12-24T07:05:55;8.48;;;1.92;;
20725;SDS011;10524;48.132;8.518;2022-12-24T07:08:21;9.63;;;1.95;;
20725;SDS011;10524;48.132;8.518;2022-12-24T07:10:48;7.45;;;2.00;;
20725;SDS011;10524;48.132;8.518;2022-12-24T07:13:16;9.75;;;2.25;;
20725;SDS011;10524;48.132;8.518;2022-12-24T07:15:42;11.40;;;2.28;;
20725;SDS011;10524;48.132;8.518;2022-12-24T07:18:08;9.20;;;1.80;;
20725;SDS011;10524;48.132;8.518;2022-12-24T07:20:33;10.98;;;2.08;;
20725;SDS011;10524;48.132;8.518;2022-12-24T07:22:59;9.90;;;2.10;;
20725;SDS011;10524;48.132;8.518;2022-12-24T07:25:25;10.00;;;2.00;;
20725;SDS011;10524;48.132;8.518;2022-12-24T07:27:50;8.90;;;1.95;;
20725;SDS011;10524;48.132;8.518;2022-12-24T07:30:16;8.68;;;2.35;;
20725;SDS011;10524;48.132;8.518;2022-12-24T07:32:42;7.45;;;1.55;;
20725;SDS011;10524;48.132;8.518;2022-12-24T07:35:08;7.68;;;2.10;;
20725;SDS011;10524;48.132;8.518;2022-12-24T07:37:34;9.02;;;2.10;;
20725;SDS011;10524;48.132;8.518;2022-12-24T07:39:59;8.60;;;2.05;;
20725;SDS011;10524;48.132;8.518;2022-12-24T07:42:25;5.90;;;1.80;;
20725;SDS011;10524;48.132;8.518;2022-12-24T07:44:51;6.28;;;1.92;;
20725;SDS011;10524;48.132;8.518;2022-12-24T07:47:16;9.88;;;2.40;;
20725;SDS011;10524;48.132;8.518;2022-12-24T07:49:42;11.75;;;3.15;;
20725;SDS011;10524;48.132;8.518;2022-12-24T07:52:08;8.43;;;2.17;;
20725;SDS011;10524;48.132;8.518;2022-12-24T07:54:33;11.00;;;2.50;;
20725;SDS011;10524;48.132;8.518;2022-12-24T07:56:59;10.77;;;3.03;;
20725;SDS011;10524;48.132;8.518;2022-12-24T07:59:25;10.93;;;2.20;;
20725;SDS011;10524;48.132;8.518;2022-12-24T08:01:51;11.30;;;2.20;;
20725;SDS011;10524;48.132;8.518;2022-12-24T08:04:16;7.75;;;2.25;;
20725;SDS011;10524;48.132;8.518;2022-12-24T08:06:42;9.07;;;2.00;;
20725;SDS011;10524;48.132;8.518;2022-12-24T08:09:07;11.48;;;1.98;;
20725;SDS011;10524;48.132;8.518;2022-12-24T08:11:33;9.38;;;2.30;;
20725;SDS011;10524;48.132;8.518;2022-12-24T08:13:59;8.75;;;2.10;;
20725;SDS011;10524;48.132;8.518;2022-12-24T08:16:24;8.07;;;2.03;;
20725;SDS011;10524;48.132;8.518;2022-12-24T08:18:50;8.40;;;2.22;;
20725;SDS011;10524;48.132;8.518;2022-12-24T08:21:16;12.80;;;2.60;;
20725;SDS011;10524;48.132;8.518;2022-12-24T08:23:42;11.05;;;2.03;;
20725;SDS011;10524;48.132;8.518;2022-12-24T08:26:08;12.45;;;2.20;;
20725;SDS011;10524;48.132;8.518;2022-12-24T08:28:34;6.97;;;2.30;;
20725;SDS011;10524;48.132;8.518;2022-12-24T08:31:01;10.75;;;2.38;;
20725;SDS011;10524;48.132;8.518;2022-12-24T08:33:27;8.60;;;2.50;;
20725;SDS011;10524;48.132;8.518;2022-12-24T08:35:53;10.90;;;2.40;;
20725;SDS011;10524;48.132;8.518;2022-12-24T08:38:20;10.55;;;2.20;;
20725;SDS011;10524;48.132;8.518;2022-12-24T08:40:46;9.23;;;1.80;;
20725;SDS011;10524;48.132;8.518;2022-12-24T08:43:14;9.27;;;2.13;;
20725;SDS011;10524;48.132;8.518;2022-12-24T08:45:40;9.98;;;2.08;;
20725;SDS011;10524;48.132;8.518;2022-12-24T08:48:07;8.90;;;2.22;;
20725;SDS011;10524;48.132;8.518;2022-12-24T08:50:33;9.07;;;2.17;;
20725;SDS011;10524;48.132;8.518;2022-12-24T08:52:59;9.32;;;2.03;;
20725;SDS011;10524;48.132;8.518;2022-12-24T08:55:24;7.45;;;1.98;;
20725;SDS011;10524;48.132;8.518;2022-12-24T08:57:50;6.78;;;2.05;;
20725;SDS011;10524;48.132;8.518;2022-12-24T09:00:16;6.85;;;1.75;;
20725;SDS011;10524;48.132;8.518;2022-12-24T09:02:42;7.70;;;2.10;;
20725;SDS011;10524;48.132;8.518;2022-12-24T09:05:08;8.68;;;1.98;;
20725;SDS011;10524;48.132;8.518;2022-12-24T09:07:34;7.57;;;1.90;;
20725;SDS011;10524;48.132;8.518;2022-12-24T09:10:00;7.25;;;1.90;;
20725;SDS011;10524;48.132;8.518;2022-12-24T09:12:26;10.80;;;2.13;;
20725;SDS011;10524;48.132;8.518;2022-12-24T09:14:51;8.52;;;2.10;;
20725;SDS011;10524;48.132;8.518;2022-12-24T09:17:18;9.07;;;2.05;;
20725;SDS011;10524;48.132;8.518;2022-12-24T09:19:44;8.75;;;2.50;;
20725;SDS011;10524;48.132;8.518;2022-12-24T09:22:10;7.72;;;2.00;;
20725;SDS011;10524;48.132;8.518;2022-12-24T09:24:36;8.35;;;1.92;;
20725;SDS011;10524;48.132;8.518;2022-12-24T09:27:02;6.82;;;2.17;;
20725;SDS011;10524;48.132;8.518;2022-12-24T09:29:28;10.00;;;2.22;;
20725;SDS011;10524;48.132;8.518;2022-12-24T09:31:54;8.90;;;2.10;;
20725;SDS011;10524;48.132;8.518;2022-12-24T09:34:23;12.65;;;3.35;;
20725;SDS011;10524;48.132;8.518;2022-12-24T09:36:49;7.43;;;2.13;;
20725;SDS011;10524;48.132;8.518;2022-12-24T09:39:15;10.15;;;2.78;;
20725;SDS011;10524;48.132;8.518;2022-12-24T09:47:00;10.85;;;2.30;;
20725;SDS011;10524;48.132;8.518;2022-12-24T09:49:39;12.82;;;2.13;;
20725;SDS011;10524;48.132;8.518;2022-12-24T09:52:09;8.98;;;2.30;;
20725;SDS011;10524;48.132;8.518;2022-12-24T09:54:42;10.40;;;2.83;;
20725;SDS011;10524;48.132;8.518;2022-12-24T09:57:16;7.85;;;2.28;;
20725;SDS011;10524;48.132;8.518;2022-12-24T09:59:51;5.95;;;2.00;;
20725;SDS011;10524;48.132;8.518;2022-12-24T10:02:18;8.95;;;2.40;;
20725;SDS011;10524;48.132;8.518;2022-12-24T10:04:45;10.60;;;2.67;;
20725;SDS011;10524;48.132;8.518;2022-12-24T10:12:46;10.48;;;2.88;;
20725;SDS011;10524;48.132;8.518;2022-12-24T10:23:22;8.88;;;2.20;;
20725;SDS011;10524;48.132;8.518;2022-12-24T10:28:55;7.88;;;2.28;;
20725;SDS011;10524;48.132;8.518;2022-12-24T10:31:25;8.60;;;2.28;;
20725;SDS011;10524;48.132;8.518;2022-12-24T10:33:58;7.88;;;2.05;;
20725;SDS011;10524;48.132;8.518;2022-12-24T10:36:27;7.07;;;2.33;;
20725;SDS011;10524;48.132;8.518;2022-12-24T10:38:54;5.93;;;1.95;;
20725;SDS011;10524;48.132;8.518;2022-12-24T10:41:20;9.25;;;2.20;;
20725;SDS011;10524;48.132;8.518;2022-12-24T10:43:47;8.75;;;2.30;;
20725;SDS011;10524;48.132;8.518;2022-12-24T10:48:53;8.40;;;2.15;;
20725;SDS011;10524;48.132;8.518;2022-12-24T10:54:04;5.68;;;1.63;;
20725;SDS011;10524;48.132;8.518;2022-12-24T10:56:40;5.15;;;1.80;;
20725;SDS011;10524;48.132;8.518;2022-12-24T11:01:54;5.38;;;2.00;;
20725;SDS011;10524;48.132;8.518;2022-12-24T11:04:24;6.25;;;2.05;;
20725;SDS011;10524;48.132;8.518;2022-12-24T11:06:57;7.32;;;2.10;;
20725;SDS011;10524;48.132;8.518;2022-12-24T11:09:25;6.28;;;1.65;;
20725;SDS011;10524;48.132;8.518;2022-12-24T11:12:02;8.23;;;2.00;;
20725;SDS011;10524;48.132;8.518;2022-12-24T11:14:33;7.45;;;2.03;;
20725;SDS011;10524;48.132;8.518;2022-12-24T11:27:55;11.43;;;2.83;;
20725;SDS011;10524;48.132;8.518;2022-12-24T11:30:23;9.52;;;2.40;;
20725;SDS011;10524;48.132;8.518;2022-12-24T11:35:26;7.72;;;2.72;;
20725;SDS011;10524;48.132;8.518;2022-12-24T11:40:27;7.40;;;2.20;;
20725;SDS011;10524;48.132;8.518;2022-12-24T11:43:00;6.90;;;2.10;;
20725;SDS011;10524;48.132;8.518;2022-12-24T11:45:27;8.43;;;1.92;;
20725;SDS011;10524;48.132;8.518;2022-12-24T11:47:55;5.28;;;1.92;;
20725;SDS011;10524;48.132;8.518;2022-12-24T11:55:45;8.55;;;2.15;;
20725;SDS011;10524;48.132;8.518;2022-12-24T12:04:19;7.68;;;2.05;;
20725;SDS011;10524;48.132;8.518;2022-12-24T12:09:28;11.15;;;2.78;;
20725;SDS011;10524;48.132;8.518;2022-12-24T12:12:04;6.05;;;2.22;;
20725;SDS011;10524;48.132;8.518;2022-12-24T12:17:05;12.50;;;4.80;;
20725;SDS011;10524;48.132;8.518;2022-12-24T12:19:40;10.57;;;4.10;;
20725;SDS011;10524;48.132;8.518;2022-12-24T12:22:13;10.13;;;5.15;;
20725;SDS011;10524;48.132;8.518;2022-12-24T12:24:48;13.30;;;6.95;;
20725;SDS011;10524;48.132;8.518;2022-12-24T12:27:19;9.38;;;2.20;;
20725;SDS011;10524;48.132;8.518;2022-12-24T12:29:58;8.65;;;2.25;;
20725;SDS011;10524;48.132;8.518;2022-12-24T12:32:40;11.82;;;2.63;;
20725;SDS011;10524;48.132;8.518;2022-12-24T12:37:57;19.55;;;7.25;;
20725;SDS011;10524;48.132;8.518;2022-12-24T12:43:27;6.60;;;2.03;;
20725;SDS011;10524;48.132;8.518;2022-12-24T12:46:20;7.05;;;2.58;;
20725;SDS011;10524;48.132;8.518;2022-12-24T12:54:05;7.18;;;2.33;;
20725;SDS011;10524;48.132;8.518;2022-12-24T12:56:33;6.90;;;2.85;;
20725;SDS011;10524;48.132;8.518;2022-12-24T12:59:11;10.07;;;3.70;;
20725;SDS011;10524;48.132;8.518;2022-12-24T13:13:20;29.20;;;15.85;;
20725;SDS011;10524;48.132;8.518;2022-12-24T13:15:55;42.67;;;20.52;;
20725;SDS011;10524;48.132;8.518;2022-12-24T13:21:15;17.23;;;11.32;;
20725;SDS011;10524;48.132;8.518;2022-12-24T13:23:48;6.22;;;2.30;;
20725;SDS011;10524;48.132;8.518;2022-12-24T13:26:14;6.85;;;2.08;;
20725;SDS011;10524;48.132;8.518;2022-12-24T13:28:41;12.68;;;2.58;;
20725;SDS011;10524;48.132;8.518;2022-12-24T13:36:02;4.97;;;1.70;;
20725;SDS011;10524;48.132;8.518;2022-12-24T13:40:56;8.10;;;4.60;;
20725;SDS011;10524;48.132;8.518;2022-12-24T13:49:29;5.38;;;2.10;;
20725;SDS011;10524;48.132;8.518;2022-12-24T13:54:58;6.18;;;2.40;;
20725;SDS011;10524;48.132;8.518;2022-12-24T13:57:44;6.72;;;2.35;;
20725;SDS011;10524;48.132;8.518;2022-12-24T14:02:53;5.90;;;1.90;;
20725;SDS011;10524;48.132;8.518;2022-12-24T14:05:25;5.97;;;2.25;;
20725;SDS011;10524;48.132;8.518;2022-12-24T14:07:58;5.35;;;1.85;;
20725;SDS011;10524;48.132;8.518;2022-12-24T14:10:30;4.88;;;1.70;;
20725;SDS011;10524;48.132;8.518;2022-12-24T14:16:07;6.07;;;2.60;;
20725;SDS011;10524;48.132;8.518;2022-12-24T14:18:40;4.30;;;1.90;;
20725;SDS011;10524;48.132;8.518;2022-12-24T14:21:22;7.90;;;2.38;;
20725;SDS011;10524;48.132;8.518;2022-12-24T14:23:55;3.67;;;2.00;;
20725;SDS011;10524;48.132;8.518;2022-12-24T14:26:26;4.28;;;2.33;;
20725;SDS011;10524;48.132;8.518;2022-12-24T14:29:01;5.07;;;2.10;;
20725;SDS011;10524;48.132;8.518;2022-12-24T14:31:30;5.85;;;2.30;;
20725;SDS011;10524;48.132;8.518;2022-12-24T14:34:11;6.28;;;2.17;;
20725;SDS011;10524;48.132;8.518;2022-12-24T14:36:38;4.93;;;1.92;;
20725;SDS011;10524;48.132;8.518;2022-12-24T14:39:07;4.20;;;2.28;;
20725;SDS011;10524;48.132;8.518;2022-12-24T14:41:41;6.80;;;3.95;;
20725;SDS011;10524;48.132;8.518;2022-12-24T14:44:12;7.28;;;3.97;;
20725;SDS011;10524;48.132;8.518;2022-12-24T14:46:54;7.07;;;3.50;;
20725;SDS011;10524;48.132;8.518;2022-12-24T14:52:16;10.40;;;5.53;;
20725;SDS011;10524;48.132;8.518;2022-12-24T14:54:45;8.07;;;4.53;;
20725;SDS011;10524;48.132;8.518;2022-12-24T14:57:22;7.32;;;3.15;;
20725;SDS011;10524;48.132;8.518;2022-12-24T14:59:50;6.72;;;3.10;;
20725;SDS011;10524;48.132;8.518;2022-12-24T15:07:57;9.00;;;4.95;;
20725;SDS011;10524;48.132;8.518;2022-12-24T15:10:30;11.52;;;5.63;;
20725;SDS011;10524;48.132;8.518;2022-12-24T15:16:14;8.90;;;3.75;;
20725;SDS011;10524;48.132;8.518;2022-12-24T15:18:52;8.52;;;3.42;;
20725;SDS011;10524;48.132;8.518;2022-12-24T15:21:34;7.20;;;3.80;;
20725;SDS011;10524;48.132;8.518;2022-12-24T15:24:05;6.38;;;4.15;;
20725;SDS011;10524;48.132;8.518;2022-12-24T15:26:49;4.55;;;3.17;;
20725;SDS011;10524;48.132;8.518;2022-12-24T15:29:22;6.18;;;3.00;;
20725;SDS011;10524;48.132;8.518;2022-12-24T15:31:54;7.88;;;4.20;;
20725;SDS011;10524;48.132;8.518;2022-12-24T15:34:25;9.07;;;6.40;;
20725;SDS011;10524;48.132;8.518;2022-12-24T15:37:00;6.85;;;3.22;;
20725;SDS011;10524;48.132;8.518;2022-12-24T15:39:52;6.45;;;3.20;;
20725;SDS011;10524;48.132;8.518;2022-12-24T15:42:19;5.00;;;3.08;;
20725;SDS011;10524;48.132;8.518;2022-12-24T15:47:37;5.38;;;3.10;;
20725;SDS011;10524;48.132;8.518;2022-12-24T15:50:15;3.72;;;3.00;;
20725;SDS011;10524;48.132;8.518;2022-12-24T15:52:51;4.72;;;3.20;;
20725;SDS011;10524;48.132;8.518;2022-12-24T15:55:25;6.53;;;3.78;;
20725;SDS011;10524;48.132;8.518;2022-12-24T15:57:52;4.63;;;3.40;;
20725;SDS011;10524;48.132;8.518;2022-12-24T16:00:22;7.32;;;3.40;;
20725;SDS011;10524;48.132;8.518;2022-12-24T16:02:51;6.47;;;3.60;;
20725;SDS011;10524;48.132;8.518;2022-12-24T16:05:33;4.05;;;3.30;;
20725;SDS011;10524;48.132;8.518;2022-12-24T16:08:20;4.72;;;3.20;;
20725;SDS011;10524;48.132;8.518;2022-12-24T16:10:48;5.95;;;3.35;;
20725;SDS011;10524;48.132;8.518;2022-12-24T16:13:33;5.05;;;3.85;;
20725;SDS011;10524;48.132;8.518;2022-12-24T16:16:11;6.05;;;4.10;;
20725;SDS011;10524;48.132;8.518;2022-12-24T16:18:52;5.68;;;3.80;;
20725;SDS011;10524;48.132;8.518;2022-12-24T16:23:52;4.57;;;3.80;;
20725;SDS011;10524;48.132;8.518;2022-12-24T16:26:20;6.65;;;3.88;;
20725;SDS011;10524;48.132;8.518;2022-12-24T16:28:46;5.10;;;4.13;;
20725;SDS011;10524;48.132;8.518;2022-12-24T16:31:16;5.68;;;3.78;;
20725;SDS011;10524;48.132;8.518;2022-12-24T16:33:44;6.45;;;3.88;;
20725;SDS011;10524;48.132;8.518;2022-12-24T16:36:10;6.28;;;5.25;;
20725;SDS011;10524;48.132;8.518;2022-12-24T16:38:36;6.20;;;5.22;;
20725;SDS011;10524;48.132;8.518;2022-12-24T16:41:21;7.35;;;4.55;;
20725;SDS011;10524;48.132;8.518;2022-12-24T16:43:47;4.78;;;4.20;;
20725;SDS011;10524;48.132;8.518;2022-12-24T16:46:15;5.85;;;4.45;;
20725;SDS011;10524;48.132;8.518;2022-12-24T16:48:42;7.07;;;4.35;;
20725;SDS011;10524;48.132;8.518;2022-12-24T16:51:11;5.43;;;4.50;;
20725;SDS011;10524;48.132;8.518;2022-12-24T16:53:36;11.60;;;5.50;;
20725;SDS011;10524;48.132;8.518;2022-12-24T16:56:02;8.45;;;5.78;;
20725;SDS011;10524;48.132;8.518;2022-12-24T16:58:28;6.88;;;5.15;;
20725;SDS011;10524;48.132;8.518;2022-12-24T17:00:54;8.82;;;5.70;;
20725;SDS011;10524;48.132;8.518;2022-12-24T17:03:20;6.15;;;4.93;;
20725;SDS011;10524;48.132;8.518;2022-12-24T17:05:45;6.90;;;4.80;;
20725;SDS011;10524;48.132;8.518;2022-12-24T17:08:11;5.70;;;5.10;;
20725;SDS011;10524;48.132;8.518;2022-12-24T17:10:37;6.43;;;4.90;;
20725;SDS011;10524;48.132;8.518;2022-12-24T17:13:04;6.75;;;4.85;;
20725;SDS011;10524;48.132;8.518;2022-12-24T17:15:30;8.23;;;6.07;;
20725;SDS011;10524;48.132;8.518;2022-12-24T17:17:56;9.70;;;7.50;;
20725;SDS011;10524;48.132;8.518;2022-12-24T17:20:21;9.60;;;6.10;;
20725;SDS011;10524;48.132;8.518;2022-12-24T17:22:47;8.82;;;6.80;;
20725;SDS011;10524;48.132;8.518;2022-12-24T17:25:14;7.28;;;5.00;;
20725;SDS011;10524;48.132;8.518;2022-12-24T17:27:39;8.68;;;6.15;;